Time;durP1;ratioP1;P1;durP2;ratioP2;P2;SDS_P1;SDS_P2;PMS_P1;PMS_P2;Temp;Humidity;BMP_temperature;BMP_pressure;BME280_temperature;BME280_humidity;BME280_pressure;Samples;Min_cycle;Max_cycle;Signal;HPM_P1;HPM_P2
2021/04/15 00:00:18;;;;;;;4.23;3.83;;;2.70;1.00;;;;;;4870330;28;20189;-76
2021/04/15 00:02:40;;;;;;;3.60;3.30;;;;;;;;;;4866563;28;20205;-73
2021/04/15 00:05:03;;;;;;;3.80;3.50;;;2.70;1.00;;;;;;4865238;28;20664;-77
2021/04/15 00:07:26;;;;;;;3.83;3.50;;;;;;;;;;4866660;28;20757;-77
2021/04/15 00:09:48;;;;;;;4.60;4.07;;;;;;;;;;4871761;28;20643;-77
2021/04/15 00:12:11;;;;;;;4.90;4.03;;;2.60;1.00;;;;;;4867081;28;20268;-77
2021/04/15 00:14:33;;;;;;;4.17;3.77;;;;;;;;;;4869901;28;20182;-78
2021/04/15 00:16:55;;;;;;;3.50;3.20;;;;;;;;;;4859350;28;20186;-77
2021/04/15 00:19:19;;;;;;;3.50;3.20;;;2.60;1.00;;;;;;4874283;28;20193;-76
2021/04/15 00:21:41;;;;;;;3.43;3.13;;;;;;;;;;4861806;28;20182;-75
2021/04/15 00:24:03;;;;;;;4.00;2.60;;;;;;;;;;4859640;28;20186;-76
2021/04/15 00:26:28;;;;;;;3.43;3.13;;;2.50;1.00;;;;;;4867695;28;20295;-78
2021/04/15 00:29:00;;;;;;;3.50;2.97;;;2.60;1.00;;;;;;4867661;28;20182;-78
2021/04/15 00:31:23;;;;;;;2.93;2.73;;;2.50;1.00;;;;;;4869976;28;20210;-77
2021/04/15 00:33:46;;;;;;;3.17;2.87;;;;;;;;;;4859958;28;20194;-78
2021/04/15 00:36:08;;;;;;;3.27;2.97;;;2.50;1.00;;;;;;4864033;28;20256;-77
2021/04/15 00:38:31;;;;;;;3.37;2.83;;;;;;;;;;4855434;28;20200;-78
2021/04/15 00:40:54;;;;;;;3.13;2.83;;;2.40;1.00;;;;;;4859152;28;20240;-75
2021/04/15 00:43:17;;;;;;;3.03;2.73;;;2.40;1.00;;;;;;4868200;28;20210;-78
2021/04/15 00:45:43;;;;;;;3.73;3.03;;;2.40;1.00;;;;;;4866168;28;20186;-78
2021/04/15 00:48:09;;;;;;;3.30;3.00;;;2.40;1.00;;;;;;4859120;28;20190;-77
2021/04/15 00:50:35;;;;;;;3.57;3.03;;;2.30;1.00;;;;;;4858643;28;20186;-77
2021/04/15 00:53:02;;;;;;;2.57;2.30;;;2.40;1.00;;;;;;4854309;28;20241;-75
2021/04/15 00:55:28;;;;;;;3.20;2.73;;;2.30;1.00;;;;;;4857653;28;20236;-75
2021/04/15 00:57:51;;;;;;;2.60;2.40;;;2.30;1.00;;;;;;4858940;28;20194;-76
2021/04/15 01:00:14;;;;;;;3.33;2.63;;;;;;;;;;4867280;28;20189;-76
2021/04/15 01:02:38;;;;;;;3.13;2.93;;;2.20;1.00;;;;;;4856602;28;20194;-73
2021/04/15 01:05:08;;;;;;;3.27;2.97;;;2.10;1.00;;;;;;4858774;28;20186;-75
2021/04/15 01:07:30;;;;;;;2.93;2.67;;;;;;;;;;4859239;28;20206;-76
2021/04/15 01:09:53;;;;;;;2.70;2.50;;;2.10;1.00;;;;;;4858878;28;20189;-75
2021/04/15 01:12:39;;;;;;;3.33;3.03;;;2.20;1.00;;;;;;4866149;28;20247;-77
2021/04/15 01:15:15;;;;;;;3.30;3.00;;;2.20;1.00;;;;;;4866215;28;20197;-73
2021/04/15 01:17:46;;;;;;;4.30;3.60;;;2.10;1.00;;;;;;4840047;28;20241;-74
2021/04/15 01:20:49;;;;;;;4.47;4.03;;;2.10;1.00;;;;;;4848229;28;20782;-74
2021/04/15 01:23:20;;;;;;;5.23;4.47;;;2.10;2.00;;;;;;4867542;28;20188;-76
2021/04/15 01:26:05;;;;;;;5.50;4.60;;;2.10;7.30;;;;;;4869499;28;20177;-74
2021/04/15 01:29:16;;;;;;;6.17;4.33;;;2.10;11.70;;;;;;4861435;28;20608;-73
2021/04/15 01:31:50;;;;;;;5.20;4.20;;;2.10;14.10;;;;;;4838861;28;20272;-76
2021/04/15 01:34:18;;;;;;;4.20;3.63;;;2.10;17.40;;;;;;4866079;28;20181;-75
2021/04/15 01:36:46;;;;;;;4.60;4.13;;;2.10;21.30;;;;;;4864778;28;20193;-75
2021/04/15 01:39:15;;;;;;;4.27;3.70;;;2.20;23.90;;;;;;4868683;28;20591;-74
2021/04/15 01:41:41;;;;;;;4.77;4.07;;;2.10;26.10;;;;;;4862107;28;20189;-74
2021/04/15 01:44:09;;;;;;;4.03;3.63;;;2.10;26.70;;;;;;4869172;28;20218;-74
2021/04/15 01:46:35;;;;;;;4.70;4.27;;;2.10;28.20;;;;;;4859115;28;20579;-73
2021/04/15 01:48:59;;;;;;;5.33;4.20;;;2.10;27.40;;;;;;4867303;28;20185;-74
2021/04/15 01:51:23;;;;;;;4.70;4.30;;;2.20;28.30;;;;;;4856540;28;20217;-74
2021/04/15 01:53:48;;;;;;;5.60;5.07;;;2.20;28.80;;;;;;4857435;28;20182;-74
2021/04/15 01:56:15;;;;;;;4.63;4.23;;;2.20;28.20;;;;;;4857495;28;20240;-73
2021/04/15 01:58:42;;;;;;;6.97;4.57;;;2.10;26.40;;;;;;4864347;28;20206;-74
2021/04/15 02:01:10;;;;;;;5.07;4.57;;;2.10;25.00;;;;;;4864790;28;20260;-74
2021/04/15 02:03:35;;;;;;;5.17;4.27;;;2.10;25.60;;;;;;4858722;28;20279;-74
2021/04/15 02:06:00;;;;;;;4.40;4.00;;;2.10;25.50;;;;;;4870995;28;20547;-76
2021/04/15 02:08:25;;;;;;;4.63;4.23;;;2.10;25.60;;;;;;4867343;28;20186;-74
2021/04/15 02:10:54;;;;;;;5.27;4.77;;;2.10;26.30;;;;;;4868660;28;20246;-77
2021/04/15 02:13:17;;;;;;;6.63;5.33;;;2.10;25.70;;;;;;4864833;28;20264;-74
2021/04/15 02:15:45;;;;;;;6.17;5.33;;;2.10;26.30;;;;;;4863087;28;20182;-75
2021/04/15 02:18:09;;;;;;;7.30;5.63;;;2.10;27.90;;;;;;4867173;28;20604;-75
2021/04/15 02:20:31;;;;;;;8.40;6.47;;;;;;;;;;4857014;28;20247;-76
2021/04/15 02:23:01;;;;;;;7.50;6.20;;;2.10;27.00;;;;;;4855778;28;20194;-74
2021/04/15 02:25:27;;;;;;;8.37;5.70;;;2.10;27.70;;;;;;4856743;28;20182;-73
2021/04/15 02:27:58;;;;;;;5.77;5.13;;;2.10;29.90;;;;;;4857273;28;20214;-74
2021/04/15 02:30:25;;;;;;;6.13;5.53;;;2.10;33.00;;;;;;4857196;28;20236;-74
2021/04/15 02:32:58;;;;;;;6.73;6.03;;;2.10;35.10;;;;;;4861315;28;20216;-75
2021/04/15 02:35:26;;;;;;;6.67;5.97;;;2.10;37.10;;;;;;4863949;28;20174;-73
2021/04/15 02:37:53;;;;;;;6.23;5.63;;;2.10;39.70;;;;;;4857355;28;20194;-74
2021/04/15 02:40:19;;;;;;;6.60;5.87;;;2.10;41.00;;;;;;4856318;28;20198;-76
2021/04/15 02:42:44;;;;;;;6.93;5.97;;;2.10;41.30;;;;;;4856630;28;20190;-75
2021/04/15 02:45:19;;;;;;;6.77;5.93;;;2.10;36.70;;;;;;4866608;28;20193;-75
2021/04/15 02:47:48;;;;;;;7.67;5.87;;;2.10;33.40;;;;;;4856417;28;20584;-75
2021/04/15 02:50:13;;;;;;;6.37;5.03;;;2.10;32.80;;;;;;4861324;28;20190;-74
2021/04/15 02:52:40;;;;;;;6.60;5.53;;;2.10;35.00;;;;;;4867639;28;20772;-75
2021/04/15 02:55:06;;;;;;;5.47;4.97;;;2.10;36.50;;;;;;4869784;28;20254;-74
2021/04/15 02:57:32;;;;;;;5.97;5.37;;;2.10;39.10;;;;;;4866224;28;20185;-74
2021/04/15 02:59:58;;;;;;;6.30;5.43;;;2.10;42.10;;;;;;4872531;28;20186;-74
2021/04/15 03:02:24;;;;;;;5.97;5.47;;;2.10;44.60;;;;;;4864170;28;20189;-75
2021/04/15 03:04:52;;;;;;;6.00;5.40;;;2.10;43.50;;;;;;4864017;28;20591;-74
2021/04/15 03:07:14;;;;;;;5.77;5.13;;;;;;;;;;4866591;28;20239;-75
2021/04/15 03:09:40;;;;;;;6.27;5.60;;;2.10;44.80;;;;;;4856674;28;20186;-75
2021/04/15 03:12:07;;;;;;;5.40;4.90;;;2.10;46.10;;;;;;4863636;28;20214;-73
2021/04/15 03:14:37;;;;;;;6.73;5.33;;;2.10;72.40;;;;;;4858660;28;20193;-76
2021/04/15 03:17:04;;;;;;;6.43;5.83;;;2.10;49.20;;;;;;4865911;28;20235;-75
2021/04/15 03:19:33;;;;;;;6.47;5.83;;;2.10;48.50;;;;;;4861202;28;20211;-74
2021/04/15 03:22:01;;;;;;;6.67;6.07;;;2.10;48.20;;;;;;4862491;28;20271;-76
2021/04/15 03:24:30;;;;;;;6.83;6.23;;;2.10;48.60;;;;;;4860996;28;20251;-75
2021/04/15 03:26:56;;;;;;;7.47;6.17;;;2.10;47.60;;;;;;4862729;28;20233;-74
2021/04/15 03:29:23;;;;;;;5.93;5.33;;;2.10;47.90;;;;;;4862844;28;20174;-73
2021/04/15 03:31:50;;;;;;;6.13;5.63;;;2.10;49.20;;;;;;4865307;28;20244;-74
2021/04/15 03:34:18;;;;;;;5.43;4.93;;;2.10;48.70;;;;;;4871500;28;20185;-75
2021/04/15 03:36:44;;;;;;;8.83;4.87;;;2.10;47.90;;;;;;4868342;28;20193;-76
2021/04/15 03:39:10;;;;;;;6.73;5.77;;;2.10;46.70;;;;;;4873555;28;20756;-74
2021/04/15 03:41:37;;;;;;;6.30;5.37;;;2.10;46.50;;;;;;4881339;28;20236;-74
2021/04/15 03:44:04;;;;;;;6.23;5.33;;;2.10;43.70;;;;;;4870237;28;20189;-77
2021/04/15 03:46:31;;;;;;;6.07;5.13;;;2.10;41.50;;;;;;4872897;28;20181;-73
2021/04/15 03:48:59;;;;;;;5.70;5.00;;;2.10;39.30;;;;;;4873831;28;20231;-76
2021/04/15 03:51:24;;;;;;;6.10;5.50;;;2.10;39.40;;;;;;4872306;28;20606;-76
2021/04/15 03:53:50;;;;;;;5.83;5.30;;;2.10;39.00;;;;;;4861110;28;20224;-76
2021/04/15 03:56:18;;;;;;;7.87;5.97;;;2.10;38.60;;;;;;4862473;28;20194;-75
2021/04/15 03:58:43;;;;;;;8.23;6.27;;;2.10;37.10;;;;;;4862748;28;20182;-76
2021/04/15 04:01:08;;;;;;;8.43;5.80;;;2.10;34.70;;;;;;4868951;28;20232;-73
2021/04/15 04:03:32;;;;;;;7.33;5.67;;;2.10;32.00;;;;;;4862211;28;20637;-76
2021/04/15 04:06:00;;;;;;;8.60;6.50;;;2.00;29.90;;;;;;4861193;28;20209;-74
2021/04/15 04:08:28;;;;;;;7.40;5.83;;;2.10;28.30;;;;;;4862393;28;20216;-74
2021/04/15 04:10:55;;;;;;;7.37;5.80;;;2.00;25.90;;;;;;4862678;28;20576;-75
2021/04/15 04:13:40;;;;;;;6.50;5.10;;;2.10;22.50;;;;;;4855127;28;20687;-73
2021/04/15 04:16:27;;;;;;;7.40;5.60;;;2.00;19.90;;;;;;4864039;28;20194;-75
2021/04/15 04:18:54;;;;;;;7.87;5.80;;;2.00;18.90;;;;;;4873827;28;20196;-75
2021/04/15 04:21:19;;;;;;;9.43;6.00;;;2.00;18.40;;;;;;4866545;28;20648;-75
2021/04/15 04:23:47;;;;;;;6.10;5.50;;;2.00;18.30;;;;;;4873611;28;20724;-75
2021/04/15 04:26:16;;;;;;;8.47;6.03;;;1.90;18.00;;;;;;4865721;28;20186;-75
2021/04/15 04:28:42;;;;;;;6.43;5.80;;;2.00;19.10;;;;;;4858807;28;20194;-74
2021/04/15 04:31:11;;;;;;;5.97;5.37;;;2.00;17.60;;;;;;4875852;28;20182;-76
2021/04/15 04:33:38;;;;;;;6.33;4.97;;;2.00;16.30;;;;;;4861226;28;20251;-75
2021/04/15 04:36:00;;;;;;;7.73;6.13;;;;;;;;;;4858900;28;20186;-74
2021/04/15 04:38:22;;;;;;;5.83;5.23;;;;;;;;;;4868332;28;20247;-75
2021/04/15 04:40:50;;;;;;;5.33;4.83;;;2.00;15.10;;;;;;4859267;28;20186;-74
2021/04/15 04:43:18;;;;;;;6.27;5.67;;;2.00;17.00;;;;;;4870930;28;20186;-76
2021/04/15 04:45:40;;;;;;;8.07;5.97;;;;;;;;;;4859441;28;20190;-75
2021/04/15 04:48:05;;;;;;;6.60;5.43;;;2.10;16.70;;;;;;4867184;28;20193;-73
2021/04/15 04:50:34;;;;;;;6.33;5.37;;;2.10;17.10;;;;;;4868116;28;20248;-75
2021/04/15 04:52:58;;;;;;;6.77;6.07;;;2.20;18.30;;;;;;4867392;28;20206;-72
2021/04/15 04:55:27;;;;;;;6.40;5.77;;;2.20;17.50;;;;;;4858691;28;20272;-76
2021/04/15 04:57:49;;;;;;;7.20;6.13;;;;;;;;;;4858949;28;20244;-75
2021/04/15 05:00:16;;;;;;;5.70;5.20;;;3.40;14.10;;;;;;4864568;28;20198;-73
2021/04/15 05:02:39;;;;;;;9.73;6.80;;;;;;;;;;4869185;28;20212;-76
2021/04/15 05:05:05;;;;;;;7.70;5.87;;;2.30;1.00;;;;;;4870318;28;20185;-75
2021/04/15 05:07:29;;;;;;;6.13;5.37;;;2.30;1.00;;;;;;4858171;28;20264;-74
2021/04/15 05:09:52;;;;;;;7.53;6.47;;;2.40;1.00;;;;;;4869708;28;20223;-73
2021/04/15 05:12:18;;;;;;;6.87;5.93;;;2.40;1.00;;;;;;4868142;28;20217;-74
2021/04/15 05:14:41;;;;;;;7.70;6.43;;;;;;;;;;4869903;28;20219;-74
2021/04/15 05:17:05;;;;;;;7.13;6.43;;;2.50;1.00;;;;;;4869234;28;20239;-74
2021/04/15 05:19:28;;;;;;;7.60;6.10;;;2.50;1.00;;;;;;4869216;28;20224;-74
2021/04/15 05:21:52;;;;;;;6.87;5.53;;;2.50;1.00;;;;;;4875137;28;20709;-73
2021/04/15 05:24:19;;;;;;;7.50;5.50;;;2.60;1.00;;;;;;4867984;28;20202;-74
2021/04/15 05:26:43;;;;;;;5.53;5.03;;;2.60;1.00;;;;;;4866386;28;20221;-73
2021/04/15 05:29:08;;;;;;;5.67;5.17;;;2.50;1.00;;;;;;4858633;28;20178;-72
2021/04/15 05:31:33;;;;;;;5.90;5.30;;;2.60;1.00;;;;;;4857274;28;20686;-75
2021/04/15 05:33:57;;;;;;;7.30;5.77;;;2.70;1.00;;;;;;4869354;28;20205;-74
2021/04/15 05:36:24;;;;;;;6.70;5.33;;;2.70;1.00;;;;;;4860329;28;20198;-75
2021/04/15 05:38:48;;;;;;;5.80;5.10;;;2.70;1.00;;;;;;4860928;28;20599;-74
2021/04/15 05:41:18;;;;;;;5.30;4.80;;;2.60;1.00;;;;;;4858025;28;20208;-75
2021/04/15 05:43:46;;;;;;;5.27;4.77;;;2.70;1.00;;;;;;4859165;28;20216;-74
2021/04/15 05:46:11;;;;;;;5.03;4.60;;;2.80;1.00;;;;;;4862301;28;20278;-73
2021/04/15 05:48:35;;;;;;;6.23;5.57;;;2.80;1.00;;;;;;4866947;28;20198;-76
2021/04/15 05:50:57;;;;;;;6.77;5.40;;;2.80;1.00;;;;;;4866107;28;20193;-74
2021/04/15 05:53:26;;;;;;;6.33;5.37;;;2.90;1.00;;;;;;4865972;28;20213;-73
2021/04/15 05:55:53;;;;;;;5.77;5.23;;;2.90;1.00;;;;;;4863335;28;20263;-75
2021/04/15 05:58:21;;;;;;;6.17;5.57;;;2.80;1.00;;;;;;4872332;28;20591;-73
2021/04/15 06:00:46;;;;;;;8.60;7.63;;;3.00;1.00;;;;;;4859625;28;20186;-73
2021/04/15 06:03:25;;;;;;;5.43;4.93;;;3.00;1.00;;;;;;4858486;28;20194;-72
2021/04/15 06:05:57;;;;;;;5.77;5.17;;;3.10;1.00;;;;;;4856550;28;20213;-74
2021/04/15 06:08:20;;;;;;;6.43;5.73;;;;;;;;;;4858312;28;20724;-74
2021/04/15 06:10:42;;;;;;;7.10;6.40;;;;;;;;;;4858129;28;20189;-74
2021/04/15 06:13:10;;;;;;;8.93;7.37;;;3.20;1.00;;;;;;4857823;28;20210;-74
2021/04/15 06:15:38;;;;;;;9.30;6.30;;;3.10;1.00;;;;;;4865527;28;20188;-75
2021/04/15 06:18:05;;;;;;;7.07;5.53;;;3.10;1.00;;;;;;4856335;28;20202;-73
2021/04/15 06:20:31;;;;;;;5.53;5.03;;;3.30;1.00;;;;;;4865717;28;20194;-74
2021/04/15 06:22:57;;;;;;;5.33;4.73;;;3.40;1.00;;;;;;4865931;28;20236;-74
2021/04/15 06:25:23;;;;;;;6.00;5.40;;;3.40;1.00;;;;;;4858562;28;20198;-73
2021/04/15 06:27:46;;;;;;;6.60;5.17;;;3.60;1.00;;;;;;4864392;28;20230;-74
2021/04/15 06:30:13;;;;;;;4.87;4.37;;;3.60;1.00;;;;;;4855810;28;20252;-73
2021/04/15 06:32:50;;;;;;;4.10;3.70;;;3.60;1.00;;;;;;4867587;28;20263;-74
2021/04/15 06:35:21;;;;;;;4.50;4.10;;;3.60;99.90;;;;;;4868613;28;20710;-74
2021/04/15 06:37:46;;;;;;;5.10;4.60;;;3.90;99.90;;;;;;4867058;28;20174;-73
2021/04/15 06:40:41;;;;;;;4.47;4.03;;;4.00;99.90;;;;;;4870003;28;20254;-74
2021/04/15 06:43:17;;;;;;;3.60;3.30;;;3.90;1.00;;;;;;4863494;28;20202;-74
2021/04/15 06:45:58;;;;;;;5.03;4.53;;;4.00;1.00;;;;;;4859006;28;20181;-77
2021/04/15 06:48:48;;;;;;;6.07;5.47;;;4.20;1.00;;;;;;4870083;28;20416;-74
2021/04/15 06:51:19;;;;;;;3.80;3.50;;;4.30;99.90;;;;;;4867748;28;20231;-73
2021/04/15 06:53:56;;;;;;;4.40;3.97;;;4.40;1.00;;;;;;4862460;28;20182;-75
2021/04/15 06:56:24;;;;;;;4.07;3.67;;;4.60;1.00;;;;;;4852005;28;20252;-72
2021/04/15 06:59:02;;;;;;;3.23;3.03;;;4.70;99.90;;;;;;4859256;28;20237;-74
2021/04/15 07:01:34;;;;;;;4.07;3.67;;;4.60;1.00;;;;;;4855429;28;20219;-74
2021/04/15 07:04:10;;;;;;;7.17;6.47;;;4.80;99.90;;;;;;4859815;28;20259;-74
2021/04/15 07:07:01;;;;;;;4.30;3.90;;;5.00;1.00;;;;;;4848971;28;20204;-75
2021/04/15 07:10:08;;;;;;;3.80;3.50;;;5.10;1.00;;;;;;4858159;28;20224;-73
2021/04/15 07:13:04;;;;;;;4.53;4.13;;;5.40;99.90;;;;;;4764288;28;20749;-75
2021/04/15 07:15:59;;;;;;;4.37;3.77;;;5.80;1.00;;;;;;4863942;28;20205;-73
2021/04/15 07:18:58;;;;;;;3.80;3.40;;;5.50;99.90;;;;;;4866255;28;20185;-74
2021/04/15 07:21:59;;;;;;;3.90;3.50;;;5.50;99.90;;;;;;4852146;28;20182;-74
2021/04/15 07:24:52;;;;;;;4.03;3.63;;;5.80;99.90;;;;;;4815801;28;20203;-75
2021/04/15 07:27:40;;;;;;;3.40;3.07;;;5.60;1.00;;;;;;4861486;28;20275;-76
2021/04/15 07:30:46;;;;;;;3.93;3.53;;;5.60;1.00;;;;;;4854662;28;20182;-75
2021/04/15 07:33:28;;;;;;;4.33;3.93;;;5.70;1.00;;;;;;4788696;28;20204;-74
2021/04/15 07:36:19;;;;;;;3.73;3.33;;;5.60;1.00;;;;;;4856345;28;20519;-75
2021/04/15 07:39:08;;;;;;;4.20;3.83;;;5.80;1.00;;;;;;4831128;28;20195;-77
2021/04/15 07:41:55;;;;;;;4.20;2.87;;;5.80;99.90;;;;;;4865172;28;20208;-74
2021/04/15 07:44:30;;;;;;;3.67;3.37;;;5.90;1.00;;;;;;4857879;28;20640;-73
2021/04/15 07:47:15;;;;;;;4.13;3.40;;;5.90;99.90;;;;;;4865290;28;20188;-74
2021/04/15 07:50:26;;;;;;;3.70;3.17;;;6.10;1.00;;;;;;4862999;28;20234;-74
2021/04/15 07:53:24;;;;;;;2.70;2.50;;;6.20;1.00;;;;;;4859135;28;20327;-73
2021/04/15 07:56:23;;;;;;;3.83;3.53;;;6.30;1.00;;;;;;4875544;28;20229;-74
2021/04/15 07:59:12;;;;;;;3.17;2.77;;;6.50;1.00;;;;;;4841831;28;20209;-77
2021/04/15 08:02:18;;;;;;;4.00;2.90;;;6.70;1.00;;;;;;4853095;28;20225;-73
2021/04/15 08:05:18;;;;;;;3.73;3.37;;;6.90;1.00;;;;;;4855461;28;20205;-74
2021/04/15 08:08:14;;;;;;;3.43;3.00;;;7.10;99.90;;;;;;4859224;28;20251;-76
2021/04/15 08:10:57;;;;;;;3.23;2.93;;;7.10;99.90;;;;;;4857141;28;20657;-76
2021/04/15 08:13:56;;;;;;;2.60;2.40;;;7.10;99.90;;;;;;4858345;28;20622;-74
2021/04/15 08:16:46;;;;;;;2.53;2.33;;;7.10;99.90;;;;;;4867969;28;20261;-74
2021/04/15 08:19:48;;;;;;;2.43;2.23;;;7.10;99.90;;;;;;4875553;28;20243;-74
2021/04/15 08:22:24;;;;;;;2.07;1.93;;;7.10;99.90;;;;;;4870330;28;20181;-73
2021/04/15 08:25:01;;;;;;;3.27;2.97;;;7.10;99.90;;;;;;4866823;28;20267;-74
2021/04/15 08:28:04;;;;;;;4.40;3.13;;;7.00;99.90;;;;;;4862030;28;20225;-75
2021/04/15 08:30:50;;;;;;;3.43;3.13;;;7.00;99.90;;;;;;4861653;28;20181;-74
2021/04/15 08:33:25;;;;;;;2.77;2.57;;;7.00;99.90;;;;;;4848410;28;20614;-75
2021/04/15 08:36:25;;;;;;;3.93;3.60;;;7.00;99.90;;;;;;4860046;28;20571;-74
2021/04/15 08:39:02;;;;;;;3.17;2.87;;;7.30;99.90;;;;;;4868188;28;20185;-74
2021/04/15 08:41:36;;;;;;;3.07;2.87;;;7.50;99.90;;;;;;4868904;28;20185;-75
2021/04/15 08:44:19;;;;;;;2.83;2.63;;;7.60;99.90;;;;;;4870221;28;20258;-77
2021/04/15 08:46:48;;;;;;;3.03;2.73;;;7.70;99.90;;;;;;4861265;28;20178;-74
2021/04/15 08:49:26;;;;;;;3.50;3.00;;;7.80;95.00;;;;;;4868078;28;20570;-74
2021/04/15 08:51:56;;;;;;;2.77;2.57;;;7.90;1.00;;;;;;4867933;28;20273;-74
2021/04/15 08:54:45;;;;;;;3.93;3.40;;;7.80;1.00;;;;;;4868455;28;20230;-74
2021/04/15 08:57:22;;;;;;;2.80;2.47;;;7.60;1.00;;;;;;4857114;28;20533;-74
2021/04/15 08:59:55;;;;;;;3.80;3.37;;;7.70;1.00;;;;;;4857493;28;20587;-75
2021/04/15 09:02:24;;;;;;;3.97;3.57;;;7.50;1.00;;;;;;4860146;28;20643;-74
2021/04/15 09:05:00;;;;;;;5.17;3.77;;;7.50;1.00;;;;;;4867252;28;20221;-73
2021/04/15 09:07:30;;;;;;;3.13;2.63;;;7.40;1.00;;;;;;4859441;28;20174;-74
2021/04/15 09:10:06;;;;;;;3.03;2.50;;;7.40;34.30;;;;;;4858968;28;20185;-73
2021/04/15 09:13:00;;;;;;;2.50;2.30;;;7.50;52.70;;;;;;4866447;28;20186;-74
2021/04/15 09:15:29;;;;;;;2.67;2.47;;;7.50;1.00;;;;;;4856801;28;20552;-72
2021/04/15 09:17:57;;;;;;;2.47;2.27;;;7.30;4.40;;;;;;4864521;28;20185;-73
2021/04/15 09:20:30;;;;;;;2.57;2.37;;;7.20;1.00;;;;;;4867928;28;20198;-74
2021/04/15 09:23:22;;;;;;;2.60;2.37;;;7.10;44.60;;;;;;4865796;28;20185;-75
2021/04/15 09:25:56;;;;;;;4.00;3.60;;;7.10;99.90;;;;;;4861613;28;20308;-74
2021/04/15 09:28:30;;;;;;;2.53;2.33;;;7.20;99.90;;;;;;4869463;28;20626;-74
2021/04/15 09:31:11;;;;;;;2.50;2.30;;;7.30;99.90;;;;;;4868449;28;20177;-74
2021/04/15 09:33:58;;;;;;;3.30;2.83;;;7.50;1.00;;;;;;4860683;28;20252;-74
2021/04/15 09:36:31;;;;;;;2.53;2.33;;;7.40;99.90;;;;;;4833558;28;20202;-74
2021/04/15 09:39:05;;;;;;;2.57;2.37;;;7.40;87.20;;;;;;4865762;28;20212;-74
2021/04/15 09:41:45;;;;;;;2.03;1.93;;;7.40;52.90;;;;;;4872543;28;20181;-72
2021/04/15 09:44:20;;;;;;;2.03;1.80;;;7.40;22.30;;;;;;4866822;28;20630;-73
2021/04/15 09:46:53;;;;;;;2.47;2.27;;;7.10;1.00;;;;;;4859503;28;20174;-73
2021/04/15 09:49:21;;;;;;;3.03;2.40;;;7.60;13.90;;;;;;4857941;28;20244;-74
2021/04/15 09:52:17;;;;;;;3.07;2.73;;;7.60;88.30;;;;;;4866000;28;20186;-74
2021/04/15 09:54:51;;;;;;;3.70;3.07;;;7.80;1.00;;;;;;4853262;28;20703;-75
2021/04/15 09:57:25;;;;;;;2.47;2.27;;;7.90;1.00;;;;;;4876845;28;20232;-74
2021/04/15 10:00:06;;;;;;;2.73;2.53;;;7.80;1.00;;;;;;4860724;28;20239;-75
2021/04/15 10:02:35;;;;;;;2.67;2.47;;;7.60;1.00;;;;;;4861154;28;20239;-74
2021/04/15 10:05:05;;;;;;;3.53;3.20;;;6.90;99.90;;;;;;4868620;28;20205;-75
2021/04/15 10:07:32;;;;;;;3.57;3.27;;;7.30;1.00;;;;;;4867113;28;20202;-74
2021/04/15 10:10:12;;;;;;;3.27;2.97;;;7.20;1.00;;;;;;4862828;28;20198;-74
2021/04/15 10:12:52;;;;;;;3.30;3.00;;;7.10;36.70;;;;;;4862344;28;20644;-76
2021/04/15 10:15:42;;;;;;;3.50;3.20;;;7.00;98.90;;;;;;4857243;28;20251;-74
2021/04/15 10:18:15;;;;;;;3.30;3.00;;;6.80;99.90;;;;;;4856637;28;20178;-74
2021/04/15 10:21:02;;;;;;;2.63;2.43;;;6.70;99.90;;;;;;4863671;28;20186;-74
2021/04/15 10:23:58;;;;;;;3.13;2.83;;;6.80;1.00;;;;;;4867599;28;20248;-75
2021/04/15 10:26:41;;;;;;;4.20;2.87;;;6.70;99.90;;;;;;4862935;28;20218;-74
2021/04/15 10:29:25;;;;;;;3.30;3.00;;;6.70;99.90;;;;;;4867597;28;20235;-74
2021/04/15 10:32:04;;;;;;;3.77;3.47;;;6.70;99.90;;;;;;4863480;28;20177;-74
2021/04/15 10:35:13;;;;;;;3.07;2.77;;;6.80;99.90;;;;;;4860846;28;20232;-76
2021/04/15 10:38:22;;;;;;;3.43;2.93;;;6.80;99.90;;;;;;4851022;28;20178;-74
2021/04/15 10:40:54;;;;;;;3.53;3.17;;;6.90;99.90;;;;;;4851187;28;20182;-73
2021/04/15 10:43:47;;;;;;;3.17;2.90;;;6.90;99.90;;;;;;4866080;28;20182;-74
2021/04/15 10:46:31;;;;;;;2.50;2.30;;;6.90;99.90;;;;;;4860215;28;20224;-74
2021/04/15 10:49:00;;;;;;;3.20;2.90;;;6.90;99.90;;;;;;4870450;28;20628;-74
2021/04/15 10:51:34;;;;;;;3.03;2.73;;;7.00;99.90;;;;;;4862480;28;20190;-74
2021/04/15 10:53:58;;;;;;;3.07;2.73;;;6.80;1.00;;;;;;4857320;28;20228;-73
2021/04/15 10:56:43;;;;;;;2.90;2.70;;;7.20;1.00;;;;;;4865615;28;20190;-71
2021/04/15 10:59:13;;;;;;;3.07;2.77;;;7.10;99.90;;;;;;4864796;28;20194;-75
2021/04/15 11:01:38;;;;;;;3.80;3.23;;;7.10;99.90;;;;;;4853942;28;20194;-75
2021/04/15 11:04:05;;;;;;;3.23;2.87;;;7.10;99.90;;;;;;4839365;28;20672;-76
2021/04/15 11:06:37;;;;;;;3.33;3.03;;;7.20;99.90;;;;;;4851802;28;20209;-74
2021/04/15 11:09:15;;;;;;;2.93;2.63;;;7.30;99.90;;;;;;4864835;28;20236;-73
2021/04/15 11:11:52;;;;;;;3.53;2.97;;;7.40;99.90;;;;;;4856938;28;20593;-76
2021/04/15 11:14:14;;;;;;;2.70;2.50;;;;;;;;;;4856588;28;20628;-75
2021/04/15 11:16:38;;;;;;;2.83;2.53;;;7.80;99.90;;;;;;4862778;28;20186;-74
2021/04/15 11:19:08;;;;;;;2.33;2.17;;;7.90;41.50;;;;;;4862155;28;20204;-77
2021/04/15 11:21:34;;;;;;;2.50;2.30;;;7.90;10.10;;;;;;4856855;28;20247;-74
2021/04/15 11:23:57;;;;;;;2.43;2.23;;;;;;;;;;4855255;28;20654;-75
2021/04/15 11:26:23;;;;;;;3.10;2.80;;;7.90;1.00;;;;;;4865388;28;20228;-75
2021/04/15 11:28:46;;;;;;;2.93;2.63;;;7.80;1.00;;;;;;4865634;28;20658;-74
2021/04/15 11:31:29;;;;;;;2.83;2.63;;;7.70;1.00;;;;;;4866069;28;20247;-74
2021/04/15 11:34:03;;;;;;;2.60;2.40;;;7.70;1.00;;;;;;4859883;28;20178;-73
2021/04/15 11:36:27;;;;;;;2.83;2.53;;;7.50;1.00;;;;;;4866688;28;21952;-75
2021/04/15 11:38:51;;;;;;;3.07;2.80;;;7.50;1.20;;;;;;4867371;28;20702;-75
2021/04/15 11:41:20;;;;;;;3.53;3.20;;;7.50;86.40;;;;;;4865470;28;20752;-74
2021/04/15 11:43:43;;;;;;;3.20;2.90;;;;;;;;;;4854418;28;20658;-74
2021/04/15 11:46:20;;;;;;;2.60;2.33;;;7.60;99.90;;;;;;4860022;28;20178;-75
2021/04/15 11:48:42;;;;;;;3.67;3.30;;;;;;;;;;4869200;28;20200;-74
2021/04/15 11:51:16;;;;;;;2.63;2.43;;;7.90;34.30;;;;;;4864508;28;20190;-76
2021/04/15 11:53:42;;;;;;;3.47;3.17;;;7.90;75.80;;;;;;4860250;28;20243;-74
2021/04/15 11:56:32;;;;;;;2.50;2.30;;;7.90;1.00;;;;;;4870290;28;20243;-76
2021/04/15 11:58:55;;;;;;;2.87;2.63;;;7.90;1.00;;;;;;4868635;28;20254;-74
2021/04/15 12:01:29;;;;;;;2.83;2.63;;;7.90;1.00;;;;;;4861742;28;20247;-73
2021/04/15 12:03:57;;;;;;;3.20;2.90;;;7.90;1.00;;;;;;4870154;28;21059;-75
2021/04/15 12:06:20;;;;;;;3.23;2.93;;;;;;;;;;4859688;28;20279;-74
2021/04/15 12:08:45;;;;;;;3.93;3.53;;;;;;;;;;4863552;28;20243;-75
2021/04/15 12:11:13;;;;;;;2.93;2.43;;;7.90;1.00;;;;;;4865173;28;20186;-73
2021/04/15 12:13:39;;;;;;;2.73;2.47;;;7.70;1.00;;;;;;4859774;28;20190;-74
2021/04/15 12:16:08;;;;;;;3.20;2.90;;;7.80;32.00;;;;;;4859688;28;20244;-72
2021/04/15 12:18:38;;;;;;;3.20;2.67;;;7.90;1.00;;;;;;4860047;28;20245;-77
2021/04/15 12:21:04;;;;;;;2.77;2.50;;;7.90;1.00;;;;;;4875561;28;20246;-75
2021/04/15 12:23:34;;;;;;;2.53;2.10;;;7.90;1.00;;;;;;4860227;28;20244;-75
2021/04/15 12:26:00;;;;;;;2.53;2.33;;;7.80;1.00;;;;;;4859274;28;20186;-75
2021/04/15 12:28:40;;;;;;;3.50;3.20;;;7.70;1.00;;;;;;4865008;28;20214;-74
2021/04/15 12:31:07;;;;;;;2.23;2.03;;;7.60;1.00;;;;;;4870955;28;20299;-75
2021/04/15 12:33:38;;;;;;;2.40;2.20;;;7.70;1.00;;;;;;4864815;28;20181;-75
2021/04/15 12:36:07;;;;;;;2.87;2.67;;;7.70;1.00;;;;;;4857141;28;20228;-75
2021/04/15 12:38:34;;;;;;;3.77;2.77;;;7.70;1.00;;;;;;4870262;28;20660;-75
2021/04/15 12:40:57;;;;;;;2.60;2.40;;;7.70;11.90;;;;;;4868204;28;20185;-75
2021/04/15 12:43:24;;;;;;;2.13;1.93;;;7.60;1.00;;;;;;4859011;28;20216;-75
2021/04/15 12:45:52;;;;;;;3.53;2.87;;;7.60;1.00;;;;;;4859449;28;20259;-74
2021/04/15 12:48:21;;;;;;;3.30;2.80;;;7.50;1.00;;;;;;4866956;28;20259;-75
2021/04/15 12:50:44;;;;;;;3.13;2.83;;;7.70;89.00;;;;;;4864934;28;20591;-75
2021/04/15 12:53:07;;;;;;;2.80;2.60;;;7.90;54.70;;;;;;4860331;28;20194;-75
2021/04/15 12:55:30;;;;;;;2.37;2.17;;;8.30;1.00;;;;;;4856668;28;20198;-76
2021/04/15 12:57:54;;;;;;;2.30;2.10;;;8.20;1.00;;;;;;4858189;28;20240;-74
2021/04/15 13:00:22;;;;;;;2.43;2.23;;;8.10;1.00;;;;;;4862957;28;20683;-74
2021/04/15 13:02:44;;;;;;;2.70;2.47;;;;;;;;;;4867757;28;20746;-75
2021/04/15 13:05:10;;;;;;;2.77;2.57;;;7.90;1.00;;;;;;4867650;28;20226;-75
2021/04/15 13:07:36;;;;;;;2.97;2.67;;;7.90;1.00;;;;;;4858695;28;20186;-74
2021/04/15 13:10:34;;;;;;;3.13;2.83;;;7.80;1.00;;;;;;4866981;28;20190;-75
2021/04/15 13:12:58;;;;;;;2.27;2.07;;;7.90;1.00;;;;;;4861953;28;20170;-75
2021/04/15 13:15:43;;;;;;;2.63;2.43;;;7.90;1.00;;;;;;4866513;28;20216;-74
2021/04/15 13:18:07;;;;;;;3.13;2.90;;;6.80;1.00;;;;;;4863596;28;20252;-74
2021/04/15 13:20:44;;;;;;;2.83;2.57;;;7.70;1.00;;;;;;4868012;28;20205;-75
2021/04/15 13:23:44;;;;;;;2.73;2.47;;;7.70;1.00;;;;;;4869195;28;20189;-74
2021/04/15 13:26:33;;;;;;;3.50;2.60;;;7.70;1.00;;;;;;4824667;28;20260;-75
2021/04/15 13:29:14;;;;;;;3.57;3.20;;;7.70;1.00;;;;;;4857987;28;20316;-76
2021/04/15 13:31:40;;;;;;;3.67;3.27;;;7.60;1.00;;;;;;4862064;28;20181;-75
2021/04/15 13:34:06;;;;;;;3.10;2.80;;;7.60;39.20;;;;;;4865372;28;20561;-75
2021/04/15 13:36:29;;;;;;;3.53;3.03;;;7.60;91.30;;;;;;4862498;28;20209;-74